Capitol Logistics 2629

Operating for CKS



PANC
Ted Stevens Anchorage International Airport
Anchorage, Alaska
KLAX
Los Angeles International Airport
Los Angeles, California

Route Details

Aircraft Information
Primary: Boeing 747-400BCF
Backup: Not Available
Route Data
Distance: 2038nm
Duration: 4h 07m
Recm'd Route: JOH J133 LAIRE BKA 5441N/13205W PRYCE TOU J501 OED LIN BURGL IRNMN2
Origin Wx: PANC 191053Z 17008KT 10SM BKN060 OVC100 13/08 A3004 RMK AO2 SLP172 T01330078
Dest. Wx: KLAX 191053Z 00000KT 6SM BR FEW005 OVC009 18/16 A2980 RMK AO2 SLP089 T01780156
Notes: